aviador You're here:

FMCH Decoded Metar

MORONI in COMOROS ISLANDS
Report Time2017-08-24 06:00:00
UTC Time2017-08-24 06:57:50
Flight Rules vfr VFR
Wind320° at 04 kt
W.Decomp.*RWY 02: 2.4 kt HW 3.2 kt LCW
W.Rank320° ranks 24
Current wind is below 320° avg. (7.0)
Visibility9999 m
Phenomena:N/A
Clouds:Few 018 Hf
Expected CloudBase > 2,000 ft AGL from Temp-Dew spread
CeilingNone
Temp27°C (ISA +12)
Dew Point22°C (74% RH)
Heat Index29.2°C
QNH1014 hPa
Density Alt1,814 ft
Elevation95 ft
Report Wrong Elevation
Raw Report
FMCH 240600Z 32004KT 9999 FEW018 27/22 Q1014 NOSIG=

Extra information for FMCH:More info

Metar Taf Metar & Taf Last 4 Metars F.Rules Stats Wind Profile Meteogram Temp Stats Airport Information Weather charts Add Link Nearby VenuesMetar ALERT Operation Metar Decoded Social comments